createdAt,value
2022-12-09T00:02:13.238Z,14.87
2022-12-09T00:04:41.467Z,14.83
2022-12-09T00:07:09.365Z,15.90
2022-12-09T00:09:37.425Z,15.70
2022-12-09T00:12:05.638Z,15.10
2022-12-09T00:14:33.696Z,15.10
2022-12-09T00:17:03.224Z,14.25
2022-12-09T00:19:31.502Z,14.53
2022-12-09T00:21:59.505Z,16.48
2022-12-09T00:24:27.297Z,14.80
2022-12-09T00:26:55.198Z,17.15
2022-12-09T00:29:22.973Z,16.88
2022-12-09T00:31:51.103Z,14.87
2022-12-09T00:34:20.579Z,16.50
2022-12-09T00:36:51.595Z,16.40
2022-12-09T00:39:19.633Z,16.33
2022-12-09T00:41:49.200Z,15.23
2022-12-09T00:44:17.208Z,16.43
2022-12-09T00:46:45.336Z,16.02
2022-12-09T00:49:13.359Z,17.65
2022-12-09T00:51:42.640Z,17.50
2022-12-09T00:54:10.785Z,16.75
2022-12-09T00:56:38.724Z,15.90
2022-12-09T00:59:06.635Z,16.25
2022-12-09T01:01:34.631Z,17.80
2022-12-09T01:04:03.240Z,16.92
2022-12-09T01:06:31.580Z,17.65
2022-12-09T01:09:00.891Z,16.80
2022-12-09T01:11:30.610Z,17.08
2022-12-09T01:14:01.521Z,19.20
2022-12-09T01:16:34.571Z,16.50
2022-12-09T01:19:04.310Z,17.27
2022-12-09T01:21:33.163Z,18.48
2022-12-09T01:24:03.377Z,19.75
2022-12-09T01:26:31.272Z,19.75
2022-12-09T01:28:59.455Z,18.42
2022-12-09T01:31:27.570Z,18.63
2022-12-09T01:33:56.261Z,17.42
2022-12-09T01:36:26.223Z,17.98
2022-12-09T01:38:54.789Z,17.55
2022-12-09T01:41:25.075Z,18.25
2022-12-09T01:44:15.770Z,17.52
2022-12-09T01:46:43.873Z,17.38
2022-12-09T01:49:17.674Z,16.85
2022-12-09T01:51:47.904Z,16.40
2022-12-09T01:54:16.115Z,18.80
2022-12-09T01:56:45.608Z,17.23
2022-12-09T01:59:16.519Z,16.73
2022-12-09T02:01:49.476Z,16.98
2022-12-09T02:04:17.920Z,19.05
2022-12-09T02:06:46.034Z,18.05
2022-12-09T02:09:14.188Z,18.85
2022-12-09T02:11:59.085Z,17.58
2022-12-09T02:14:33.089Z,16.65
2022-12-09T02:17:17.562Z,17.67
2022-12-09T02:20:01.463Z,16.58
2022-12-09T02:22:34.142Z,16.77
2022-12-09T02:25:13.332Z,18.25
2022-12-09T02:27:49.714Z,17.27
2022-12-09T02:30:20.790Z,17.73
2022-12-09T02:33:21.946Z,15.90
2022-12-09T02:35:56.019Z,19.02
2022-12-09T02:38:27.896Z,17.08
2022-12-09T02:41:02.276Z,16.73
2022-12-09T02:43:35.714Z,16.17
2022-12-09T02:46:06.170Z,15.90
2022-12-09T02:48:38.766Z,17.40
2022-12-09T02:51:11.380Z,17.77
2022-12-09T02:53:41.449Z,18.35
2022-12-09T02:56:10.378Z,18.48
2022-12-09T02:58:38.277Z,18.03
2022-12-09T03:01:07.360Z,17.92
2022-12-09T03:03:37.443Z,17.50
2022-12-09T03:06:10.986Z,18.23
2022-12-09T03:08:47.516Z,18.45
2022-12-09T03:11:18.092Z,19.27
2022-12-09T03:13:53.385Z,18.43
2022-12-09T03:16:28.884Z,17.80
2022-12-09T03:19:00.661Z,18.53
2022-12-09T03:21:32.899Z,17.17
2022-12-09T03:24:03.196Z,18.07
2022-12-09T03:26:33.369Z,18.17
2022-12-09T03:29:04.819Z,17.57
2022-12-09T03:31:35.809Z,16.77
2022-12-09T03:34:07.807Z,15.73
2022-12-09T03:36:40.943Z,17.47
2022-12-09T03:39:14.469Z,16.67
2022-12-09T03:41:46.410Z,17.43
2022-12-09T03:44:20.778Z,18.15
2022-12-09T03:46:49.195Z,19.13
2022-12-09T03:49:17.283Z,20.43
2022-12-09T03:51:55.570Z,18.43
2022-12-09T03:54:27.797Z,17.47
2022-12-09T03:56:57.786Z,18.90
2022-12-09T03:59:29.519Z,18.40
2022-12-09T04:01:58.228Z,17.60
2022-12-09T04:04:26.235Z,17.47
2022-12-09T04:06:56.137Z,17.07
2022-12-09T04:09:24.215Z,17.40
2022-12-09T04:11:52.415Z,17.30
2022-12-09T04:14:20.544Z,16.93
2022-12-09T04:16:48.423Z,18.13
2022-12-09T04:19:16.301Z,17.37
2022-12-09T04:21:44.221Z,16.60
2022-12-09T04:24:14.233Z,17.50
2022-12-09T04:26:44.951Z,16.43
2022-12-09T04:29:13.314Z,16.97
2022-12-09T04:31:41.499Z,18.00
2022-12-09T04:34:10.173Z,18.30
2022-12-09T04:36:39.566Z,19.00
2022-12-09T04:39:08.297Z,18.10
2022-12-09T04:41:38.219Z,15.50
2022-12-09T04:44:06.694Z,16.57
2022-12-09T04:46:35.042Z,16.37
2022-12-09T04:49:04.679Z,17.33
2022-12-09T04:51:39.095Z,16.67
2022-12-09T04:54:08.996Z,15.70
2022-12-09T04:56:38.267Z,14.40
2022-12-09T04:59:06.834Z,14.63
2022-12-09T05:01:35.515Z,14.77
2022-12-09T05:04:04.361Z,16.50
2022-12-09T05:06:32.834Z,14.83
2022-12-09T05:09:01.211Z,15.73
2022-12-09T05:11:29.712Z,15.10
2022-12-09T05:13:59.163Z,15.53
2022-12-09T05:16:27.316Z,14.68
2022-12-09T05:18:55.547Z,14.80
2022-12-09T05:21:23.829Z,16.80
2022-12-09T05:23:51.821Z,14.80
2022-12-09T05:26:50.145Z,16.10
2022-12-09T05:29:22.549Z,14.77
2022-12-09T05:31:51.787Z,14.07
2022-12-09T05:34:19.984Z,15.17
2022-12-09T05:36:48.617Z,13.13
2022-12-09T05:39:16.517Z,13.68
2022-12-09T05:41:46.639Z,14.40
2022-12-09T05:44:14.657Z,14.63
2022-12-09T05:46:44.100Z,14.32
2022-12-09T05:49:12.083Z,14.68
2022-12-09T05:51:40.275Z,15.30
2022-12-09T05:54:08.390Z,15.70
2022-12-09T05:56:37.082Z,13.95
2022-12-09T05:59:06.145Z,14.05
2022-12-09T06:01:34.179Z,14.65
2022-12-09T06:04:03.959Z,13.80
2022-12-09T06:06:32.358Z,14.63
2022-12-09T06:09:03.213Z,13.17
2022-12-09T06:11:32.618Z,13.30
2022-12-09T06:14:00.914Z,14.80
2022-12-09T06:16:29.037Z,13.30
2022-12-09T06:18:57.714Z,13.63
2022-12-09T06:21:27.364Z,13.87
2022-12-09T06:23:56.223Z,12.93
2022-12-09T06:26:26.948Z,15.07
2022-12-09T06:28:56.882Z,13.90
2022-12-09T06:31:25.892Z,13.13
2022-12-09T06:33:56.496Z,14.57
2022-12-09T06:36:27.993Z,13.93
2022-12-09T06:38:57.018Z,13.50
2022-12-09T06:41:26.952Z,14.23
2022-12-09T06:43:55.026Z,13.63
2022-12-09T06:46:24.832Z,12.82
2022-12-09T06:48:54.090Z,13.47
2022-12-09T06:51:23.652Z,13.07
2022-12-09T06:53:54.209Z,13.57
2022-12-09T06:56:22.444Z,15.13
2022-12-09T06:58:51.324Z,14.23
2022-12-09T07:01:22.773Z,12.37
2022-12-09T07:04:00.251Z,13.47
2022-12-09T07:06:31.110Z,13.67
2022-12-09T07:09:02.094Z,14.13
2022-12-09T07:11:31.061Z,13.20
2022-12-09T07:13:59.666Z,13.13
2022-12-09T07:16:30.151Z,14.07
2022-12-09T07:18:58.531Z,13.73
2022-12-09T07:21:26.942Z,13.93
2022-12-09T07:23:55.408Z,14.20
2022-12-09T07:26:25.661Z,14.37
2022-12-09T07:28:53.779Z,12.67
2022-12-09T07:31:25.007Z,13.60
2022-12-09T07:33:55.215Z,14.27
2022-12-09T07:36:25.145Z,11.90
2022-12-09T07:38:56.408Z,14.23
2022-12-09T07:41:26.560Z,11.93
2022-12-09T07:43:54.557Z,13.40
2022-12-09T07:46:24.354Z,13.70
2022-12-09T07:48:52.824Z,12.40
2022-12-09T07:51:21.655Z,12.73
2022-12-09T07:53:49.694Z,13.13
2022-12-09T07:56:19.413Z,13.80
2022-12-09T07:58:51.258Z,13.27
2022-12-09T08:01:21.079Z,13.77
2022-12-09T08:03:50.596Z,14.30
2022-12-09T08:06:22.652Z,13.63
2022-12-09T08:08:51.282Z,17.53
2022-12-09T08:11:21.597Z,14.40
2022-12-09T08:13:55.110Z,14.33
2022-12-09T08:16:24.284Z,13.50
2022-12-09T08:18:55.940Z,15.87
2022-12-09T08:21:26.417Z,15.37
2022-12-09T08:23:56.220Z,14.93
2022-12-09T08:26:27.147Z,15.63
2022-12-09T08:28:57.267Z,14.73
2022-12-09T08:31:27.528Z,14.10
2022-12-09T08:33:56.152Z,15.67
2022-12-09T08:36:26.452Z,16.87
2022-12-09T08:38:56.139Z,16.95
2022-12-09T08:41:35.360Z,17.20
2022-12-09T08:44:07.186Z,18.77
2022-12-09T08:46:37.372Z,18.65
2022-12-09T08:49:09.341Z,17.60
2022-12-09T08:51:38.282Z,17.83
2022-12-09T08:54:07.775Z,17.13
2022-12-09T08:56:36.774Z,19.05
2022-12-09T08:59:07.159Z,18.33
2022-12-09T09:01:36.429Z,17.90
2022-12-09T09:04:07.598Z,18.60
2022-12-09T09:06:37.267Z,18.50
2022-12-09T09:09:07.908Z,17.47
2022-12-09T09:11:42.449Z,18.23
2022-12-09T09:14:14.951Z,18.07
2022-12-09T09:16:45.796Z,17.97
2022-12-09T09:19:18.706Z,16.27
2022-12-09T09:21:47.213Z,17.47
2022-12-09T09:24:18.183Z,15.47
2022-12-09T09:26:47.654Z,15.87
2022-12-09T09:29:19.053Z,16.50
2022-12-09T09:31:48.796Z,14.67
2022-12-09T09:34:19.116Z,15.07
2022-12-09T09:36:50.497Z,15.40
2022-12-09T09:39:18.650Z,14.40
2022-12-09T09:41:52.927Z,15.18
2022-12-09T09:44:29.000Z,15.00
2022-12-09T09:46:58.549Z,14.13
2022-12-09T09:49:33.875Z,15.87
2022-12-09T09:52:07.300Z,16.27
2022-12-09T09:54:36.424Z,15.53
2022-12-09T09:57:14.256Z,15.27
2022-12-09T09:59:52.359Z,13.83
2022-12-09T10:02:37.554Z,15.97
2022-12-09T10:05:14.632Z,12.53
2022-12-09T10:07:45.172Z,14.23
2022-12-09T10:10:22.287Z,15.03
2022-12-09T10:13:08.339Z,15.03
2022-12-09T10:15:47.193Z,17.17
2022-12-09T10:18:21.820Z,15.40
2022-12-09T10:20:50.485Z,15.70
2022-12-09T10:23:20.790Z,25.17
2022-12-09T10:25:52.172Z,15.93
2022-12-09T10:28:24.092Z,17.33
2022-12-09T10:30:56.500Z,25.33
2022-12-09T10:33:30.629Z,18.97
2022-12-09T10:35:59.376Z,19.97
2022-12-09T10:38:33.034Z,18.42
2022-12-09T10:41:08.670Z,19.80
2022-12-09T10:43:38.833Z,21.43
2022-12-09T10:46:20.395Z,18.20
2022-12-09T10:48:55.950Z,17.80
2022-12-09T10:51:26.998Z,17.80
2022-12-09T10:54:00.427Z,20.55
2022-12-09T10:57:23.488Z,20.15
2022-12-09T11:00:02.055Z,16.42
2022-12-09T11:02:33.994Z,17.83
2022-12-09T11:05:25.440Z,16.53
2022-12-09T11:07:55.738Z,17.47
2022-12-09T11:10:26.808Z,16.47
2022-12-09T11:13:01.691Z,14.33
2022-12-09T11:15:36.734Z,14.63
2022-12-09T11:18:20.111Z,15.40
2022-12-09T11:20:57.048Z,15.07
2022-12-09T11:23:27.135Z,14.77
2022-12-09T11:25:58.623Z,15.93
2022-12-09T11:28:30.149Z,16.33
2022-12-09T11:33:57.112Z,16.97
2022-12-09T11:36:31.256Z,18.25
2022-12-09T11:39:16.727Z,18.00
2022-12-09T11:42:11.449Z,17.05
2022-12-09T11:44:45.240Z,16.73
2022-12-09T11:47:23.006Z,14.80
2022-12-09T11:49:55.992Z,15.50
2022-12-09T11:52:30.364Z,11.50
2022-12-09T11:55:11.472Z,11.50
2022-12-09T11:57:44.968Z,13.27
2022-12-09T12:00:21.129Z,11.73
2022-12-09T12:02:56.667Z,11.77
2022-12-09T12:05:31.014Z,10.85
2022-12-09T12:08:09.688Z,12.25
2022-12-09T12:10:43.194Z,12.38
2022-12-09T12:13:17.979Z,11.90
2022-12-09T12:15:53.291Z,12.75
2022-12-09T12:18:23.359Z,11.23
2022-12-09T12:21:12.393Z,10.27
2022-12-09T12:23:57.538Z,12.52
2022-12-09T12:26:30.280Z,10.90
2022-12-09T12:29:12.345Z,11.27
2022-12-09T12:32:01.511Z,11.20
2022-12-09T12:34:39.650Z,9.90
2022-12-09T12:37:26.039Z,9.43
2022-12-09T12:40:10.115Z,11.18
2022-12-09T12:43:07.871Z,11.52
2022-12-09T12:46:03.619Z,10.65
2022-12-09T12:48:44.052Z,12.32
2022-12-09T12:51:25.631Z,11.20
2022-12-09T12:54:09.651Z,10.93
2022-12-09T12:56:47.243Z,10.13
2022-12-09T12:59:24.201Z,9.73
2022-12-09T13:01:55.228Z,13.02
2022-12-09T13:04:27.315Z,11.75
2022-12-09T13:07:01.566Z,11.57
2022-12-09T13:09:37.922Z,11.75
2022-12-09T13:12:12.968Z,11.80
2022-12-09T13:14:52.624Z,13.18
2022-12-09T13:17:25.680Z,11.07
2022-12-09T13:19:57.240Z,11.45
2022-12-09T13:22:31.262Z,11.07
2022-12-09T13:25:19.443Z,13.68
2022-12-09T13:27:54.421Z,11.40
2022-12-09T13:30:27.355Z,11.70
2022-12-09T13:33:19.153Z,12.80
2022-12-09T13:35:55.575Z,12.88
2022-12-09T13:38:33.665Z,10.82
2022-12-09T13:41:59.142Z,11.70
2022-12-09T13:44:32.736Z,10.27
2022-12-09T13:47:24.306Z,10.93
2022-12-09T13:50:01.708Z,9.48
2022-12-09T13:52:50.014Z,9.93
2022-12-09T13:55:39.581Z,10.38
2022-12-09T13:58:31.481Z,11.38
2022-12-09T14:01:05.339Z,11.00
2022-12-09T14:03:36.475Z,10.85
2022-12-09T14:06:17.358Z,10.75
2022-12-09T14:08:49.970Z,10.88
2022-12-09T14:11:48.158Z,10.27
2022-12-09T14:15:07.350Z,10.30
2022-12-09T14:18:03.815Z,11.63
2022-12-09T14:20:37.970Z,11.10
2022-12-09T14:23:26.920Z,10.93
2022-12-09T14:26:01.187Z,10.48
2022-12-09T14:28:56.848Z,9.82
2022-12-09T14:32:03.828Z,10.18
2022-12-09T14:34:40.266Z,9.95
2022-12-09T14:37:37.362Z,10.38
2022-12-09T14:40:34.757Z,15.20
2022-12-09T14:43:14.930Z,13.23
2022-12-09T14:45:50.394Z,10.25
2022-12-09T14:48:24.181Z,10.85
2022-12-09T14:51:10.062Z,11.63
2022-12-09T14:53:39.561Z,11.15
2022-12-09T14:56:08.288Z,11.52
2022-12-09T14:58:36.330Z,13.27
2022-12-09T15:01:07.002Z,12.60
2022-12-09T15:03:44.791Z,12.82
2022-12-09T15:06:18.584Z,12.65
2022-12-09T15:08:47.458Z,11.68
2022-12-09T15:11:19.432Z,12.35
2022-12-09T15:13:50.499Z,12.40
2022-12-09T15:16:21.347Z,15.48
2022-12-09T15:18:54.187Z,11.93
2022-12-09T15:21:29.827Z,11.27
2022-12-09T15:24:01.179Z,11.85
2022-12-09T15:26:30.916Z,13.77
2022-12-09T15:29:01.135Z,12.10
2022-12-09T15:31:31.032Z,15.30
2022-12-09T15:34:08.803Z,14.05
2022-12-09T15:36:39.506Z,13.48
2022-12-09T15:39:11.176Z,13.13
2022-12-09T15:42:01.066Z,14.20
2022-12-09T15:44:32.729Z,15.90
2022-12-09T15:47:10.307Z,14.32
2022-12-09T15:49:45.559Z,12.95
2022-12-09T15:52:15.760Z,14.27
2022-12-09T15:54:46.157Z,14.57
2022-12-09T15:57:18.085Z,15.52
2022-12-09T15:59:55.825Z,13.30
2022-12-09T16:02:27.575Z,13.35
2022-12-09T16:05:00.631Z,11.25
2022-12-09T16:07:32.820Z,11.82
2022-12-09T16:10:11.875Z,12.00
2022-12-09T16:12:43.415Z,12.98
2022-12-09T16:15:14.239Z,12.10
2022-12-09T16:17:54.257Z,12.63
2022-12-09T16:20:34.177Z,12.20
2022-12-09T16:23:02.526Z,11.57
2022-12-09T16:25:38.013Z,10.85
2022-12-09T16:28:07.580Z,10.02
2022-12-09T16:30:49.694Z,12.00
2022-12-09T16:33:19.847Z,10.65
2022-12-09T16:35:59.165Z,13.45
2022-12-09T16:38:27.427Z,13.48
2022-12-09T16:41:13.508Z,12.77
2022-12-09T16:44:02.309Z,12.90
2022-12-09T16:46:39.591Z,14.35
2022-12-09T16:49:08.493Z,14.63
2022-12-09T16:51:38.917Z,11.73
2022-12-09T16:54:20.109Z,13.25
2022-12-09T16:56:49.928Z,13.32
2022-12-09T16:59:18.064Z,13.23
2022-12-09T17:01:46.566Z,13.98
2022-12-09T17:04:17.484Z,15.00
2022-12-09T17:06:47.535Z,13.93
2022-12-09T17:09:15.553Z,16.60
2022-12-09T17:11:48.555Z,13.95
2022-12-09T17:14:19.998Z,14.20
2022-12-09T17:16:48.250Z,14.13
2022-12-09T17:19:16.504Z,15.30
2022-12-09T17:21:44.662Z,14.93
2022-12-09T17:24:14.012Z,13.50
2022-12-09T17:26:42.543Z,10.50
2022-12-09T17:29:10.932Z,13.60
2022-12-09T17:31:38.985Z,12.85
2022-12-09T17:34:07.210Z,13.80
2022-12-09T17:36:35.162Z,13.88
2022-12-09T17:39:07.546Z,14.32
2022-12-09T17:41:37.117Z,16.25
2022-12-09T17:44:05.358Z,14.65
2022-12-09T17:46:33.395Z,15.77
2022-12-09T17:49:02.082Z,15.38
2022-12-09T17:51:35.601Z,16.83
2022-12-09T17:54:04.411Z,15.68
2022-12-09T17:56:32.553Z,16.95
2022-12-09T17:59:04.094Z,16.08
2022-12-09T18:01:34.255Z,14.68
2022-12-09T18:04:08.099Z,17.63
2022-12-09T18:06:38.172Z,12.23
2022-12-09T18:09:08.330Z,15.45
2022-12-09T18:11:36.604Z,14.70
2022-12-09T18:14:07.202Z,13.52
2022-12-09T18:16:35.634Z,16.25
2022-12-09T18:19:05.490Z,13.32
2022-12-09T18:21:34.608Z,14.05
2022-12-09T18:24:03.004Z,13.00
2022-12-09T18:26:36.670Z,13.93
2022-12-09T18:29:09.479Z,14.38
2022-12-09T18:31:37.557Z,14.88
2022-12-09T18:34:05.957Z,16.60
2022-12-09T18:36:33.890Z,12.70
2022-12-09T18:39:02.929Z,13.90
2022-12-09T18:41:32.725Z,13.05
2022-12-09T18:44:03.669Z,12.05
2022-12-09T18:46:35.602Z,10.75
2022-12-09T18:49:05.962Z,11.93
2022-12-09T18:51:34.018Z,13.07
2022-12-09T18:54:03.712Z,12.82
2022-12-09T18:56:32.621Z,13.05
2022-12-09T18:59:09.190Z,12.90
2022-12-09T19:01:43.550Z,12.30
2022-12-09T19:04:17.197Z,12.52
2022-12-09T19:06:47.516Z,12.40
2022-12-09T19:09:17.801Z,12.35
2022-12-09T19:11:47.228Z,12.75
2022-12-09T19:14:16.287Z,12.18
2022-12-09T19:16:46.953Z,11.98
2022-12-09T19:19:17.340Z,12.52
2022-12-09T19:21:45.892Z,12.35
2022-12-09T19:24:22.932Z,12.65
2022-12-09T19:26:53.186Z,11.60
2022-12-09T19:29:24.597Z,13.65
2022-12-09T19:31:57.145Z,11.05
2022-12-09T19:34:27.040Z,12.10
2022-12-09T19:36:57.371Z,14.23
2022-12-09T19:39:30.046Z,13.40
2022-12-09T19:41:58.635Z,13.25
2022-12-09T19:47:18.157Z,12.82
2022-12-09T19:49:46.214Z,13.65
2022-12-09T19:52:14.245Z,12.55
2022-12-09T19:54:42.891Z,13.55
2022-12-09T19:57:10.827Z,12.10
2022-12-09T19:59:38.807Z,11.57
2022-12-09T20:02:12.033Z,11.70
2022-12-09T20:04:50.290Z,14.02
2022-12-09T20:07:19.093Z,13.98
2022-12-09T20:09:47.495Z,12.13
2022-12-09T20:12:15.682Z,13.35
2022-12-09T20:14:44.091Z,13.50
2022-12-09T20:17:17.308Z,13.63
2022-12-09T20:19:48.353Z,16.00
2022-12-09T20:22:16.385Z,12.57
2022-12-09T20:24:44.529Z,15.75
2022-12-09T20:27:12.674Z,13.57
2022-12-09T20:29:40.469Z,13.88
2022-12-09T20:32:09.482Z,13.85
2022-12-09T20:34:40.318Z,13.30
2022-12-09T20:37:10.403Z,13.38
2022-12-09T20:39:38.780Z,14.63
2022-12-09T20:42:07.021Z,14.05
2022-12-09T20:44:35.257Z,13.35
2022-12-09T20:47:03.533Z,12.38
2022-12-09T20:49:31.667Z,13.57
2022-12-09T20:52:00.298Z,13.43
2022-12-09T20:54:29.771Z,12.50
2022-12-09T20:56:58.272Z,15.63
2022-12-09T20:59:26.325Z,13.20
2022-12-09T21:01:56.020Z,13.75
2022-12-09T21:04:24.324Z,13.02
2022-12-09T21:06:52.649Z,16.42
2022-12-09T21:09:24.699Z,13.57
2022-12-09T21:11:54.912Z,12.93
2022-12-09T21:14:25.681Z,12.23
2022-12-09T21:16:58.490Z,12.15
2022-12-09T21:19:30.012Z,13.95
2022-12-09T21:21:58.047Z,15.40
2022-12-09T21:24:26.301Z,13.88
2022-12-09T21:26:57.325Z,12.55
2022-12-09T21:29:33.494Z,13.68
2022-12-09T21:32:02.646Z,11.02
2022-12-09T21:34:30.817Z,13.90
2022-12-09T21:36:58.833Z,12.18
2022-12-09T21:39:27.613Z,13.45
2022-12-09T21:42:02.914Z,11.55
2022-12-09T21:44:30.792Z,12.80
2022-12-09T21:46:58.728Z,13.95
2022-12-09T21:49:29.636Z,12.25
2022-12-09T21:51:57.655Z,12.60
2022-12-09T21:54:25.961Z,13.25
2022-12-09T21:56:54.349Z,11.27
2022-12-09T21:59:23.890Z,12.55
2022-12-09T22:01:52.265Z,12.80
2022-12-09T22:04:20.461Z,13.40
2022-12-09T22:06:49.838Z,12.98
2022-12-09T22:09:20.777Z,12.85
2022-12-09T22:11:48.646Z,11.95
2022-12-09T22:14:16.919Z,12.13
2022-12-09T22:16:47.220Z,13.10
2022-12-09T22:19:20.829Z,12.88
2022-12-09T22:21:52.004Z,10.77
2022-12-09T22:24:20.183Z,12.55
2022-12-09T22:26:48.286Z,12.88
2022-12-09T22:29:17.735Z,12.20
2022-12-09T22:31:48.226Z,12.05
2022-12-09T22:34:17.578Z,12.20
2022-12-09T22:36:49.150Z,12.07
2022-12-09T22:39:21.511Z,12.10
2022-12-09T22:41:49.666Z,12.25
2022-12-09T22:44:20.760Z,11.10
2022-12-09T22:46:50.562Z,10.07
2022-12-09T22:49:18.649Z,10.48
2022-12-09T22:51:47.757Z,11.32
2022-12-09T22:54:16.486Z,11.18
2022-12-09T22:56:45.108Z,10.80
2022-12-09T22:59:14.596Z,9.77
2022-12-09T23:01:47.546Z,10.60
2022-12-09T23:04:19.169Z,10.75
2022-12-09T23:06:47.391Z,11.23
2022-12-09T23:09:17.293Z,11.25
2022-12-09T23:11:45.872Z,10.63
2022-12-09T23:14:13.770Z,11.80
2022-12-09T23:16:41.606Z,11.98
2022-12-09T23:19:11.550Z,9.80
2022-12-09T23:21:43.020Z,12.48
2022-12-09T23:24:15.721Z,10.73
2022-12-09T23:26:46.374Z,10.70
2022-12-09T23:29:16.373Z,11.30
2022-12-09T23:31:44.952Z,11.35
2022-12-09T23:34:29.956Z,10.05
2022-12-09T23:36:59.113Z,9.95
2022-12-09T23:39:27.956Z,10.95
2022-12-09T23:41:55.927Z,10.85
2022-12-09T23:44:23.665Z,11.00
2022-12-09T23:46:51.559Z,11.45
2022-12-09T23:49:19.407Z,10.40
2022-12-09T23:51:47.947Z,11.35
2022-12-09T23:54:19.205Z,11.23
2022-12-09T23:56:50.617Z,11.75
2022-12-09T23:59:20.935Z,9.80
